Tiempo atmosférico en la estación meteorológica de Ceuta, Ceuta (87 m.)



Fecha
DESCASC
Temp. máxima en grados centígrados (hora)
DESCASC
Temp. mínima en grados centígrados (hora)
DESCASC
Temp. media en grados centígrados
DESCASC
Racha de viento máxima en m/sg (hora)
DESCASC
Velocidad máxima media en intervalos de 10 minutos(hora)
DESCASC
Precipitaciones diarias en mm
DESCASC
Precipitaciones de 00:00 a 06:00 en mm
DESCASC
Precipitaciones de 06:00 a 12:00 en mm
DESCASC
Precipitaciones de 12:00 a 18:00 en mm
DESCASC
Precipitaciones de 18:00 a 24:00 en mm
DESCASC
23-05-2018 22.1 (12:30) 17.2 (06:10) 19.7 6.11 (12:50) 4.17 (13:50) 0 0 0 0 0
22-05-2018 22.2 (16:50) 14.2 (06:40) 18.2 4.72 (18:30) 3.33 (17:40) 0 0 0 0 0
21-05-2018 22.3 (15:50) 15.7 (06:30) 19 6.67 (15:20) 4.17 (16:10) 0 0 0 0 0
20-05-2018 20.5 (13:30) 16.1 (00:00) 18.3 5.28 (13:30) 3.33 (13:40) 0 0 0 0 0
19-05-2018 20.7 (13:20) 16.2 (00:00) 18.5 7.78 (15:10) 5.28 (14:30) 0 0 0 0 0
18-05-2018 20.3 (14:20) 15.8 (00:00) 18 9.17 (12:10) 5.83 (14:40) 0 0 0 0 0
17-05-2018 19.6 (11:10) 16.5 (00:00) 18.1 9.72 (14:30) 5.56 (15:00) 0 0 0 0 0
16-05-2018 20.6 (14:20) 16.1 (00:00) 18.4 12.22 (13:40) 7.22 (14:40) 0 0 0 0 0
15-05-2018 21 (15:00) 15.2 (00:00) 18.1 8.33 (15:00) 5.56 (15:40) 0 0 0 0 0
14-05-2018 21 (16:30) 12.5 (00:00) 16.8 5.56 (13:10) 3.89 (19:50) 0 0 0 0 0
13-05-2018 23.6 (17:10) 12.4 (00:00) 18 8.89 (03:00) 3.89 (13:10) 0 0 0 0 0
12-05-2018 20.3 (14:40) 15.7 (00:00) 18 11.67 (13:20) 4.72 (13:30) 0 0 0 0 0
11-05-2018 21 (17:50) 13.9 (06:00) 17.4 5 (15:00) 3.33 (18:00) 0.4 0 0.4 0 0
10-05-2018 22.2 (15:20) 15 (00:00) 18.6 20.83 (01:10) 6.94 (00:50) 0 0 0 0 0
09-05-2018 24.2 (14:10) 16.8 (00:00) 20.5 15.28 (17:10) 6.39 (17:10) 0 0 0 0 0
08-05-2018 24.6 (16:20) 14.7 (00:00) 19.7 13.61 (21:00) 7.5 (20:50) 0 0 0 0 0
07-05-2018 20.5 (14:20) 15.7 (00:00) 18.1 8.33 (12:30) 5 (12:30) 0 0 0 0 0
06-05-2018 19.9 (14:00) 15.5 (00:00) 17.7 10 (14:30) 6.67 (14:40) 0 0 0 0 0
05-05-2018 19.1 (11:40) 13.9 (00:00) 16.5 7.5 (14:40) 5 (14:50) 0 0 0 0 0
04-05-2018 22.7 (15:40) 15.4 (00:00) 19.1 12.22 (17:20) 6.67 (17:10) 0 0 0 0 0
03-05-2018 22.3 (13:30) 13.5 (00:00) 17.9 11.39 (22:30) 4.44 (18:50) 0 0 0 0 0
02-05-2018 20.1 (17:10) 13 (00:00) 16.6 11.67 (01:30) 5 (12:30) 0 0 0 0 0
01-05-2018 18.3 (14:50) 11.9 (20:30) 15.1 13.33 (17:20) 5.83 (17:20) 1.2 0 0 0 1.2
30-04-2018 18.7 (14:30) 11.6 (00:00) 15.2 10.28 (15:20) 5 (18:50) 0 0 0 0 0
29-04-2018 17.9 (15:10) 11.5 (00:00) 14.7 16.39 (16:40) 5.28 (02:00) 6.8 3.4 3.2 0.2 0
28-04-2018 18.4 (14:40) 14.4 (00:00) 16.4 11.67 (12:30) 5 (15:00) 0 0 0 0 0

Gráficas

Temp. máximas Temp. mínimas Temp. medias Precipitaciones Rachas de viento máximas Velocidades máximas media en intervalos de 10 minutos

Datos horarios

Fecha y hora oficial Temperatura (ºC) Velocidad del viento (km/h) Dirección del viento Racha (km/h) Dirección de racha Precipitación (mm) Presión (hPa) Tendencia (hPa) Humedad (%)
2018-05-27 23:00:00 18.4 9 Oeste 24 Oeste 0 1007 1.4 78
2018-05-27 22:00:00 18.6 9 Oeste 31 Oeste 0 1006.3 0.8 76
2018-05-27 21:00:00 18.8 11 Oeste 22 Noroeste 0 1006 1.1 73
2018-05-27 20:00:00 19.9 6 Oeste 32 Oeste 0 1005.6 0.6 66
2018-05-27 19:00:00 21.5 10 Oeste 33 Sudoeste 0 1005.5 0.3 59
2018-05-27 18:00:00 22 11 Oeste 40 Oeste 0 1004.9 -0.7 62
2018-05-27 17:00:00 23.1 12 Noroeste 26 Noroeste 0 1005 -0.9 57
2018-05-27 16:00:00 23.2 13 Noroeste 32 Noroeste 0 1005.2 -1 56
2018-05-27 15:00:00 23 11 Oeste 27 Oeste 0 1005.6 -0.6 59
2018-05-27 14:00:00 22.9 12 Noroeste 26 Oeste 0 1005.9 0.2 60
2018-05-27 13:00:00 22.7 13 Oeste 29 Oeste 0 1006.2 0.7 62
2018-05-27 12:00:00 22.4 12 Oeste 30 Noroeste 0 1006.2 1.2 62
2018-05-27 11:00:00 21.9 8 Oeste 23 Sudoeste 0 1005.7 1.2 61
2018-05-27 10:00:00 20.1 8 Sudoeste 21 Sur 0 1005.5 1.5 65
2018-05-27 09:00:00 19.3 10 Oeste 25 Oeste 0 1005 1.7 64
2018-05-27 08:00:00 17.6 10 Oeste 27 Sudoeste 0 1004.5 1.6 78
2018-05-27 07:00:00 17.4 7 Oeste 20 Sur 0 1004 1.2 75
2018-05-27 06:00:00 17.8 5 Nordeste 33 Noroeste 0 1003.3 0.2 76
2018-05-27 05:00:00 18 13 Oeste 29 Noroeste 0 1002.9 -0.6 76
2018-05-27 04:00:00 18.3 13 Oeste 33 Noroeste 0 1002.8 -0.3 73
2018-05-27 03:00:00 18.3 6 Noroeste 30 Oeste 0 1003.1 0.3 74
2018-05-27 02:00:00 18.6 9 Noroeste 24 Noroeste 0 1003.5 0.2 73
2018-05-27 01:00:00 18.6 8 Noroeste 25 Noroeste 0 1003.1 0.8 65
2018-05-27 00:00:00 18.9 5 Oeste 17 Noroeste 0 1002.8 0.4 62
2018-05-26 23:00:00 18.6 6 Oeste 18 Oeste 0 1003.3 1.1 69
2018-05-26 22:00:00 18.5 6 Sudoeste 10 Oeste 0 1002.3 0.2 69
2018-05-26 21:00:00 19.3 3 Norte 10 Norte 0 1002.4 -0.1 77
2018-05-26 20:00:00 21 5 Sur 11 Sudeste 0 1002.2 -0.1 68
2018-05-26 19:00:00 21.3 9 Sudeste 23 Sur 0 1002.1 -0.5 68
2018-05-26 18:00:00 21.5 12 Sur 18 Sudeste 0 1002.5 -0.4 68
2018-05-26 17:00:00 21.8 10 Sudeste 17 Sur 0 1002.3 -0.5 67
2018-05-26 16:00:00 21.6 12 Sur 16 Sur 0 1002.6 -0.6 66
2018-05-26 15:00:00 23.1 11 Sudeste 20 Sur 0 1002.9 -0.1 57
2018-05-26 14:00:00 23.2 10 Sudeste 17 Sudeste 0 1002.8 -0.2 55
2018-05-26 13:00:00 21.9 11 Sudeste 19 Sudeste 0 1003.2 0.1 56
2018-05-26 12:00:00 22 6 Este 16 Norte 0 1003 -0.2 64
2018-05-26 11:00:00 20.2 5 Oeste 17 Noroeste 0 1003 -0.2 69
2018-05-26 10:00:00 19.3 3 Sudeste 8 Sur 0 1003.1 0 69
2018-05-26 09:00:00 18.8 6 Norte 13 Noroeste 0 1003.2 0.6 72
2018-05-26 08:00:00 16 4 Noroeste 7 Noroeste 0 1003.2 0.6 85
2018-05-26 07:00:00 14.9 4 Oeste 9 Sudoeste 0 1003.1 0.1 84
2018-05-26 06:00:00 16.1 3 Sur 12 Sudeste 0 1002.6 -0.7 84
2018-05-26 05:00:00 16.4 4 Sur 9 Sur 0 1002.6 -1.3 83
2018-05-26 04:00:00 15.8 6 Oeste 10 Oeste 0 1003 -1 83
2018-05-26 03:00:00 15.8 4 Oeste 12 Sur 0 1003.3 -0.9 81
2018-05-26 02:00:00 15.9 5 Sur 8 Noroeste 0 1003.9 -0.3 81
2018-05-26 01:00:00 15.7 4 Oeste 12 Oeste 0 1004 0.5 80
2018-05-26 00:00:00 17.2 8 Sudoeste 12 Sudoeste 0 1004.2 0.9 77
2018-05-25 23:00:00 17.5 6 Sudoeste 12 Sur 0 1004.2 1.5 73
2018-05-25 22:00:00 18 3 Sudeste 16 Sudoeste 0 1003.5 1 72
2018-05-25 21:00:00 19 6 Sudeste 21 Sur 0 1003.3 0.6 68
2018-05-25 20:00:00 20.2 7 Sur 25 Oeste 0 1002.7 -0.3 64
2018-05-25 19:00:00 21.2 9 Sudoeste 29 Oeste 0 1002.5 -0.9 59
2018-05-25 18:00:00 21.6 15 Noroeste 38 Oeste 0 1002.7 -1.1 58
2018-05-25 17:00:00 22.3 10 Oeste 26 Noroeste 0 1003 -1 60
2018-05-25 16:00:00 22.6 9 Noroeste 21 Noroeste 0 1003.4 -0.9 60
2018-05-25 15:00:00 21.7 8 Oeste 24 Oeste 0 1003.8 -0.3 60
2018-05-25 14:00:00 20 6 Oeste 19 Oeste 0 1004 -0.1 64
2018-05-25 13:00:00 19.7 12 Oeste 28 Oeste 0 1004.3 0.2 64
2018-05-25 12:00:00 20.9 6 Oeste 26 Sur 0 1004.1 0.4 61
2018-05-25 11:00:00 21.1 10 Sudoeste 28 Sudoeste 0 1004.1 0.4 60
2018-05-25 10:00:00 20.3 9 Sudoeste 22 Sur 0 1004.1 0.9 65
2018-05-25 09:00:00 18.4 8 Sudeste 17 Sudoeste 0 1003.7 0.8 72
2018-05-25 08:00:00 17.2 8 Sudoeste 18 Sudoeste 0 1003.7 0.9 75
2018-05-25 07:00:00 16.5 5 Sudoeste 19 Oeste 0 1003.2 0.1 76
2018-05-25 06:00:00 16.9 10 Oeste 26 Oeste 0 1002.9 -0.6 72
2018-05-25 05:00:00 16.6 9 Sudoeste 25 Oeste 0 1002.8 -0.1 71
2018-05-25 04:00:00 16.2 4 Sur 19 Noroeste 0 1003.1 -1.6 72
2018-05-25 03:00:00 16.5 6 Sudoeste 34 Noroeste 0 1003.5 -1.8 72
2018-05-25 02:00:00 17.1 17 Noroeste 33 Noroeste 0 1002.9 -2.1 63
2018-05-25 01:00:00 15.9 6 Oeste 14 Oeste 0 1004.7 0.8 81
2018-05-25 00:00:00 16.3 5 Oeste 17 Noroeste 0 1005.3 1.5 80
2018-05-24 23:00:00 16.6 5 Oeste 15 Sudoeste 0 1005 1.7 78
2018-05-24 22:00:00 17.4 7 Oeste 26 Oeste 0 1003.9 0.7 72
2018-05-24 21:00:00 18.1 6 Oeste 23 Oeste 0 1003.8 0.6 69
2018-05-24 20:00:00 19.5 6 Oeste 28 Sudoeste 0 1003.3 0.3 65
2018-05-24 19:00:00 20 9 Sudoeste 47 Noroeste 0 1003.2 0.2 68
2018-05-24 18:00:00 19.3 12 Noroeste 34 Noroeste 0 1003.2 0 75
2018-05-24 17:00:00 20.3 17 Oeste 34 Oeste 0 1003 -0.3 68
2018-05-24 16:00:00 20.6 8 Noroeste 29 Oeste 0 1003 -0.3 67
2018-05-24 15:00:00 20 10 Oeste 30 Noroeste 0 1003.2 0.3 67
2018-05-24 14:00:00 20.6 10 Oeste 28 Noroeste 0 1003.3 0.5 64
2018-05-24 13:00:00 22.9 9 Oeste 20 Noroeste 0 1003.3 0.5 60
2018-05-24 12:00:00 22 8 Noroeste 16 Noroeste 0 1002.9 0.5 70
2018-05-24 11:00:00 21.6 4 Nordeste 19 Oeste 0 1002.8 0.6 70
2018-05-24 10:00:00 20.5 10 Oeste 24 Oeste 0 1002.8 0.9 73
2018-05-24 09:00:00 19.8 8 Oeste 18 Noroeste 0 1002.4 0.3 76
2018-05-24 08:00:00 17.9 4 Sudoeste 10 Oeste 0 1002.2 -0.3 86
2018-05-24 07:00:00 17.1 6 Sudoeste 13 Sudoeste 0 1001.9 -0.9 87
2018-05-24 06:00:00 17 3 Oeste 12 Oeste 0 1002.1 -1.4 88
2018-05-24 05:00:00 17.4 7 Oeste 17 Sur 0 1002.5 -1.6 88
2018-05-24 04:00:00 17.1 4 Noroeste 8 Oeste 0 1002.8 -1.9 87
2018-05-24 03:00:00 17 3 Sudoeste 9 Oeste 0 1003.5 -1.4 87
2018-05-24 02:00:00 16.6 5 Norte 10 Norte 0 1004.1 -0.5 85
2018-05-24 01:00:00 17 4 Oeste 8 Oeste 0 1004.7 0.6 85
2018-05-24 00:00:00 17.7 6 Sudoeste 9 Oeste 0 1004.9 1.3 85
2018-05-23 23:00:00 18 3 Sur 9 Oeste 0 1004.6 1.3 84
2018-05-23 22:00:00 18.2 3 Oeste 8 Este 0 1004.1 0.7 81
2018-05-23 21:00:00 19 4 Norte 9 Norte 0 1003.6 0 83
2018-05-23 20:00:00 19.7 5 Norte 13 Nordeste 0 1003.3 -0.5 82
2018-05-23 19:00:00 20.6 10 Nordeste 14 Nordeste 0 1003.4 -0.7 77
2018-05-23 18:00:00 21.6 8 Este 14 Sudeste 0 1003.6 -1 62
2018-05-23 17:00:00 22 9 Sudeste 16 Sudeste 0 1003.8 -1.2 60
2018-05-23 16:00:00 21.1 13 Este 22 Este 0 1004.1 -1.4 68
2018-05-23 15:00:00 21.9 14 Este 22 Este 0 1004.6 -0.9 67
2018-05-23 14:00:00 21.7 13 Este 22 Este 0 1005 -0.5 70
2018-05-23 13:00:00 21.4 12 Este 22 Este 0 1005.5 0.2 71
2018-05-23 12:00:00 21.5 11 Sudeste 21 Sudeste 0 1005.5 0.5 72
2018-05-23 11:00:00 20.6 13 Este 17 Este 0 1005.5 0.6 77
2018-05-23 10:00:00 19.3 11 Sudeste 18 Sudeste 0 1005.3 0.7 81
2018-05-23 09:00:00 17.5 7 Este 10 Este 0 1005 0.7 95
2018-05-23 08:00:00 17.3 4 Este 14 Sur 0 1004.9 0.8 98
2018-05-23 07:00:00 17.3 9 Sur 14 Sur 0 1004.6 0.4 98
2018-05-23 06:00:00 17.3 7 Sur 13 Sur 0 1004.3 -0.3 99
2018-05-23 05:00:00 17.4 5 Sudeste 12 Sur 0 1004.1 -1 98
2018-05-23 04:00:00 17.5 9 Sur 17 Sur 0 1004.2 -0.9 97
2018-05-23 03:00:00 17.6 7 Sur 11 Sur 0 1004.6 -0.4 98
2018-05-23 02:00:00 17.7 5 Sur 9 Sur 0 1005.1 0.6 96
2018-05-23 01:00:00 17.7 4 Sur 9 Sudoeste 0 1005.1 1.4 89
2018-05-23 00:00:00 18 5 Sudoeste 11 Sur 0 1005 1.4 92
2018-05-22 23:00:00 18.3 6 Sur 13 Sur 0 1004.5 0.9 92
2018-05-22 22:00:00 18.9 9 Sur 14 Sur 0 1003.7 0.2 89
2018-05-22 21:00:00 19.5 8 Sur 16 Sur 0 1003.6 -0.1 83
2018-05-22 20:00:00 20.1 9 Sur 15 Sur 0 1003.6 -0.2 79
2018-05-22 19:00:00 20.5 10 Sur 17 Sur 0 1003.5 -0.6 74
2018-05-22 18:00:00 20.8 11 Sur 16 Sur 0 1003.7 -0.7 72
2018-05-22 17:00:00 21.6 9 Sur 14 Sudeste 0 1003.8 -0.8 67
2018-05-22 16:00:00 21.7 9 Sudeste 15 Sur 0 1004.1 -0.6 65
2018-05-22 15:00:00 22 6 Sudeste 16 Sudeste 0 1004.4 0 62
2018-05-22 14:00:00 21.7 7 Sudeste 16 Sudeste 0 1004.6 0.3 64
2018-05-22 13:00:00 21.4 10 Sudeste 15 Sudeste 0 1004.7 0.4 67
2018-05-22 12:00:00 21.7 9 Sudeste 15 Sudeste 0 1004.4 0.2 63
2018-05-22 11:00:00 20.7 6 Este 12 Este 0 1004.3 0.5 67
2018-05-22 10:00:00 19.5 8 Sudeste 12 Sur 0 1004.3 0.9 69
2018-05-22 09:00:00 18 3 Nordeste 7 Norte 0 1004.2 1 79
2018-05-22 08:00:00 15.5 0 Calma 9 Oeste 0 1003.8 0.8 88
2018-05-22 07:00:00 14.3 6 Sudoeste 9 Sudoeste 0 1003.4 0.3 92
2018-05-22 06:00:00 14.7 6 Sudoeste 9 Oeste 0 1003.2 -0.3 90
2018-05-22 05:00:00 14.7 3 Oeste 9 Sudoeste 0 1003 -0.8 90
2018-05-22 04:00:00 15 5 Oeste 9 Oeste 0 1003.1 -1.1 90
2018-05-22 03:00:00 15.1 4 Sudoeste 9 Oeste 0 1003.5 -0.7 89
2018-05-22 02:00:00 15.4 4 Sudoeste 9 Sudoeste 0 1003.8 -0.1 87
2018-05-22 01:00:00 15.7 4 Oeste 7 Sudoeste 0 1004.2 0.6 87
2018-05-22 00:00:00 16 3 Noroeste 10 Oeste 0 1004.2 1.3 84
2018-05-21 23:00:00 16.5 4 Oeste 10 Sudoeste 0 1003.9 1.4 81
2018-05-21 22:00:00 17.4 5 Sudoeste 8 Oeste 0 1003.6 0.9 79
2018-05-21 21:00:00 18.8 3 Noroeste 10 Oeste 0 1002.9 0.2 77
2018-05-21 20:00:00 20.2 4 Norte 18 Nordeste 0 1002.5 -0.2 71
2018-05-21 19:00:00 21.3 5 Noroeste 17 Sudoeste 0 1002.7 0.3 69
2018-05-21 18:00:00 20 5 Nordeste 19 Sudeste 0 1002.7 0.3 73
2018-05-21 17:00:00 20.1 13 Sudeste 24 Sur 0 1002.7 -0.4 68
2018-05-21 16:00:00 21.9 12 Este 24 Nordeste 0 1002.4 -1 70
2018-05-21 15:00:00 20.3 11 Nordeste 19 Norte 0 1002.4 -0.8 77
2018-05-21 14:00:00 20.3 12 Nordeste 19 Norte 0 1003.1 0.1 76
2018-05-21 13:00:00 19.8 12 Norte 17 Norte 0 1003.4 0.5 76
2018-05-21 12:00:00 20.3 9 Sur 14 Sur 0 1003.2 0.5 70
2018-05-21 11:00:00 19.8 8 Sudeste 13 Sudeste 0 1003 0.7 73
2018-05-21 10:00:00 17.4 5 Sudeste 9 Sudeste 0 1002.9 0.7 88
2018-05-21 09:00:00 16.1 4 Norte 6 Norte 0 1002.7 0.9 98
2018-05-21 08:00:00 15.9 0 Calma 5 Este 0 1002.3 0.7 99
2018-05-21 07:00:00 15.7 3 Noroeste 5 Noroeste 0 1002.2 0.3 99
2018-05-21 06:00:00 15.9 3 Nordeste 9 Sur 0 1001.8 -0.4 98
2018-05-21 05:00:00 16.1 3 Este 8 Norte 0 1001.6 -1 99
2018-05-21 04:00:00 16.2 3 Nordeste 5 Este 0 1001.9 -1 100
2018-05-21 03:00:00 16.1 0 Calma 8 Norte 0 1002.2 -1 99
2018-05-21 02:00:00 16.4 3 Sur 8 Sur 0 1002.6 -0.6 95
2018-05-21 01:00:00 16.4 5 Sudoeste 11 Sudoeste 0 1002.9 0.1 94
2018-05-21 00:00:00 16.7 6 Sur 14 Sur 0 1003.2 0.2 93
2018-05-20 23:00:00 17 8 Sur 13 Sudoeste 0 1003.2 0.5 93
2018-05-20 22:00:00 17.2 9 Sur 13 Sur 0 1002.8 -0.2 92
2018-05-20 21:00:00 17.3 2 Norte 9 Nordeste 0 1003 0.4 91
2018-05-20 20:00:00 18.5 6 Este 14 Este 0 1002.7 0.2 85
2018-05-20 19:00:00 19.8 8 Sudeste 17 Sur 0 1003 0.1 71
2018-05-20 18:00:00 19.9 11 Sur 19 Sudeste 0 1002.6 -1.1 73
2018-05-20 17:00:00 20.1 11 Sudeste 18 Sur 0 1002.5 -1.6 69
2018-05-20 16:00:00 19.8 10 Sur 18 Sur 0 1002.9 -1.8 77
2018-05-20 15:00:00 19.4 12 Sudeste 17 Sudeste 0 1003.7 -1 78
2018-05-20 14:00:00 19.5 11 Sudeste 19 Sur 0 1004.1 -0.5 78
2018-05-20 13:00:00 19.5 9 Este 18 Sur 0 1004.7 0.2 77
2018-05-20 12:00:00 19.2 9 Sudeste 15 Sur 0 1004.7 0.3 78
2018-05-20 11:00:00 19.1 7 Sudeste 17 Este 0 1004.6 0.4 80
2018-05-20 10:00:00 18.3 7 Sudeste 12 Este 0 1004.5 0.6 82
2018-05-20 09:00:00 17.6 8 Sur 13 Sur 0 1004.4 0.4 87
2018-05-20 08:00:00 16.4 6 Sur 13 Sur 0 1004.2 -0.1 97
2018-05-20 07:00:00 16.2 7 Sur 14 Sur 0 1003.9 -0.7 98
2018-05-20 06:00:00 16.4 8 Sur 11 Sur 0 1004 -1.1 99
2018-05-20 05:00:00 16.2 7 Sur 11 Sur 0 1004.3 -1.3 98
2018-05-20 04:00:00 16.3 5 Este 10 Sur 0 1004.6 -1.3 96
2018-05-20 03:00:00 16.6 6 Sur 11 Sur 0 1005.1 -1 98
2018-05-20 02:00:00 16.7 8 Sur 10 Sudeste 0 1005.6 -0.1 97
2018-05-20 01:00:00 16.6 8 Sur 15 Sur 0 1005.9 0.4 97
2018-05-20 00:00:00 16.7 6 Sudeste 14 Sudeste 0 1006.1 0.8 96
2018-05-19 23:00:00 16.9 9 Sudeste 16 Sur 0 1005.7 1 94
2018-05-19 22:00:00 17.1 9 Sudeste 15 Sur 0 1005.5 0.6 93
2018-05-19 21:00:00 17.5 11 Sudeste 17 Sudeste 0 1005.3 0.3 92
2018-05-19 20:00:00 17.8 10 Sudeste 21 Sur 0 1004.7 -0.6 89
2018-05-19 19:00:00 18.5 12 Sudeste 22 Sur 0 1004.9 -0.5 85
2018-05-19 18:00:00 18.4 13 Sudeste 20 Sudeste 0 1005 -1.1 86
2018-05-19 17:00:00 19.1 12 Sudeste 22 Sudeste 0 1005.3 -1.2 84
2018-05-19 16:00:00 19.5 14 Sudeste 28 Este 0 1005.4 -1.1 80
2018-05-19 15:00:00 19.8 19 Este 28 Este 0 1006.1 -0.1 79
2018-05-19 14:00:00 20.1 18 Este 27 Sudeste 0 1006.5 0.4 78
2018-05-19 13:00:00 20.4 13 Sudeste 25 Sudeste 0 1006.5 0.9 78
2018-05-19 12:00:00 19.2 16 Sudeste 25 Sudeste 0 1006.2 1 82
2018-05-19 11:00:00 18.1 16 Sudeste 23 Sudeste 0 1006.1 1.1 87
2018-05-19 10:00:00 17.9 11 Sudeste 19 Sudeste 0 1005.6 1 90
2018-05-19 09:00:00 17.4 12 Sudeste 19 Sudeste 0 1005.2 0.6 91
2018-05-19 08:00:00 16.4 9 Sudeste 17 Sudeste 0 1005 0.4 96
2018-05-19 07:00:00 16.4 10 Sudeste 17 Sudeste 0 1004.6 -0.1 96
2018-05-19 06:00:00 16.4 10 Sudeste 19 Sudeste 0 1004.6 -0.4 96
2018-05-19 05:00:00 16.3 13 Sudeste 20 Sudeste 0 1004.6 -0.9 95
2018-05-19 04:00:00 16.2 12 Sudeste 20 Sudeste 0 1004.7 -1 95
2018-05-19 03:00:00 16.3 10 Sudeste 19 Sudeste 0 1005 -0.7 94
2018-05-19 02:00:00 16.4 12 Sudeste 19 Sudeste 0 1005.5 -0.1 95
2018-05-19 01:00:00 16.5 12 Sudeste 21 Sudeste 0 1005.7 0.7 93
2018-05-19 00:00:00 16.7 12 Sudeste 21 Sudeste 0 1005.7 0.9 92
2018-05-18 23:00:00 16.9 13 Sudeste 22 Sudeste 0 1005.6 1.1 90
2018-05-18 22:00:00 17 11 Sudeste 22 Sudeste 0 1005 0.4 90
2018-05-18 21:00:00 17.3 13 Sudeste 22 Este 0 1004.8 0 89
2018-05-18 20:00:00 17.7 13 Sudeste 24 Sudeste 0 1004.5 -0.4 87
2018-05-18 19:00:00 18.2 15 Sudeste 29 Sudeste 0 1004.6 -0.8 86
2018-05-18 18:00:00 19.3 16 Sudeste 29 Este 0 1004.8 -0.9 81
2018-05-18 17:00:00 19.1 19 Este 29 Este 0 1004.9 -1.2 80
2018-05-18 16:00:00 19.7 19 Este 29 Este 0 1005.4 -0.8 77
2018-05-18 15:00:00 19.8 19 Este 32 Este 0 1005.7 -0.3 77
2018-05-18 14:00:00 19.8 18 Este 31 Este 0 1006.1 0.4 78
2018-05-18 13:00:00 19.4 17 Este 33 Este 0 1006.2 0.8 81
2018-05-18 12:00:00 19.1 20 Este 32 Sudeste 0 1006 1 80
2018-05-18 11:00:00 19.2 17 Este 30 Este 0 1005.7 0.9 81
2018-05-18 10:00:00 18.9 17 Este 29 Este 0 1005.4 0.9 84
2018-05-18 09:00:00 16.7 16 Este 28 Este 0 1005 0.5 92
2018-05-18 08:00:00 16.4 13 Este 24 Este 0 1004.8 0.3 91
2018-05-18 07:00:00 15.9 12 Nordeste 23 Este 0 1004.5 -0.2 96
2018-05-18 06:00:00 15.9 12 Nordeste 24 Este 0 1004.5 -0.6 97
2018-05-18 05:00:00 15.8 10 Este 21 Nordeste 0 1004.5 -1.2 98
2018-05-18 04:00:00 16 13 Nordeste 23 Nordeste 0 1004.7 -0.9 98
2018-05-18 03:00:00 16.4 11 Este 24 Este 0 1005.1 -0.6 94
2018-05-18 02:00:00 16.6 15 Nordeste 23 Este 0 1005.7 0.2 97
2018-05-18 01:00:00 16.8 11 Este 23 Este 0 1005.6 0.8 98
2018-05-18 00:00:00 16.8 14 Este 27 Este 0 1005.7 1.4 97
2018-05-17 23:00:00 16.9 13 Este 23 Este 0 1005.5 1.4 92
2018-05-17 22:00:00 17 12 Este 21 Este 0 1004.8 0.6 91
2018-05-17 21:00:00 16.8 7 Sudeste 15 Sur 0 1004.3 0.1 91
2018-05-17 20:00:00 16.8 9 Sudeste 19 Sur 0 1004.1 -0.1 90
2018-05-17 19:00:00 16.8 11 Sur 27 Sudeste 0 1004.2 0 87
2018-05-17 18:00:00 17.1 17 Sudeste 28 Sudeste 0 1004.2 0.2 82
2018-05-17 17:00:00 17.4 13 Sudeste 30 Sudeste 0 1004.2 0.3 84
2018-05-17 16:00:00 18.2 17 Sudeste 33 Sudeste 0 1004.2 0.6 74
2018-05-17 15:00:00 17.7 20 Sudeste 35 Sudeste 0 1004 0.8 77
2018-05-17 14:00:00 18.1 18 Sudeste 33 Sur 0 1003.9 1.2 79
2018-05-17 13:00:00 18.9 17 Sur 33 Sudeste 0 1003.6 1.1 74
2018-05-17 12:00:00 19.2 18 Sudeste 32 Sur 0 1003.2 1.1 76
2018-05-17 11:00:00 19.5 12 Sudeste 23 Sudeste 0 1002.7 0.6 75
2018-05-17 10:00:00 18.7 14 Sudeste 24 Sudeste 0 1002.5 0.9 76
2018-05-17 09:00:00 18.2 16 Sur 29 Sur 0 1002.1 0.7 81
2018-05-17 08:00:00 17.4 12 Sur 30 Sur 0 1002.1 0.5 85
2018-05-17 07:00:00 17.1 17 Sur 29 Sudeste 0 1001.6 -0.7 86
2018-05-17 06:00:00 17.2 14 Sur 22 Sur 0 1001.4 -1.6 84
2018-05-17 05:00:00 17.2 13 Sudeste 26 Sudeste 0 1001.6 -1.8 84
2018-05-17 04:00:00 17 18 Sudeste 26 Sudeste 0 1002.3 -1 86
2018-05-17 03:00:00 16.7 16 Este 28 Este 0 1003 -0.2 91
2018-05-17 02:00:00 16.5 13 Este 23 Este 0 1003.4 0.5 93
2018-05-17 01:00:00 16.7 12 Sudeste 22 Sudeste 0 1003.3 1.2 92
2018-05-17 00:00:00 17 13 Sudeste 27 Sudeste 0 1003.2 1.4 90
2018-05-16 23:00:00 17.1 15 Sudeste 28 Este 0 1002.9 1.6 88
2018-05-16 22:00:00 17.1 15 Este 30 Sudeste 0 1002.1 0.7 88
2018-05-16 21:00:00 17.4 18 Este 33 Sudeste 0 1001.8 0.3 85
2018-05-16 20:00:00 17.9 20 Sudeste 33 Sudeste 0 1001.3 -0.5 82
2018-05-16 19:00:00 19.1 19 Sudeste 33 Sudeste 0 1001.4 -0.9 76
2018-05-16 18:00:00 19.7 20 Sudeste 35 Este 0 1001.5 -1 74
2018-05-16 17:00:00 20.3 20 Este 36 Este 0 1001.8 -1.3 74
2018-05-16 16:00:00 20 25 Este 42 Sudeste 0 1002.3 -1 74
2018-05-16 15:00:00 20.1 24 Este 39 Este 0 1002.5 -0.9 73
2018-05-16 14:00:00 20.3 25 Este 44 Este 0 1003.1 -0.3 74
2018-05-16 13:00:00 19.8 23 Este 36 Este 0 1003.3 0.2 76
2018-05-16 12:00:00 19.6 24 Este 41 Este 0 1003.4 0.4 77
2018-05-16 11:00:00 19.1 23 Este 36 Este 0 1003.4 0.5 79
2018-05-16 10:00:00 18.1 21 Este 39 Este 0 1003.1 0.2 86
2018-05-16 09:00:00 17.8 21 Este 33 Este 0 1003 -0.1 85
2018-05-16 08:00:00 16.9 14 Este 28 Este 0 1002.9 -0.4 87
2018-05-16 07:00:00 16.2 13 Este 23 Este 0 1002.9 -0.7 90
2018-05-16 06:00:00 16.1 9 Este 24 Este 0 1003.1 -0.8 92
2018-05-16 05:00:00 16.6 12 Este 22 Este 0 1003.3 -1.3 95
2018-05-16 04:00:00 16.5 12 Este 21 Este 0 1003.6 -1.4 94
2018-05-16 03:00:00 16.7 10 Sudeste 19 Sudeste 0 1003.9 -1.2 95
2018-05-16 02:00:00 16.8 13 Sudeste 22 Sudeste 0 1004.6 -0.2 93
2018-05-16 01:00:00 16.7 12 Este 21 Este 0 1005 0.7 95
2018-05-16 00:00:00 16.8 9 Sudeste 15 Sudeste 0 1005.1 1 92
2018-05-15 23:00:00 17 8 Sur 17 Sur 0 1004.8 0.9 92
2018-05-15 22:00:00 17.2 10 Sudeste 20 Sudeste 0 1004.3 0.4 91
2018-05-15 21:00:00 17.6 11 Sudeste 24 Sudeste 0 1004.1 -0.1 89
2018-05-15 20:00:00 18.1 13 Sudeste 21 Sudeste 0 1003.9 -0.6 86
2018-05-15 19:00:00 19.1 14 Sudeste 23 Sudeste 0 1003.9 -1.1 80
2018-05-15 18:00:00 20 14 Sudeste 26 Sudeste 0 1004.2 -1.2 72
2018-05-15 17:00:00 20.5 15 Sudeste 28 Sur 0 1004.5 -1.3 69
2018-05-15 16:00:00 20.9 15 Sudeste 30 Este 0 1005 -1 69
2018-05-15 15:00:00 20.7 15 Este 30 Este 0 1005.4 -0.7 72
2018-05-15 14:00:00 20.3 18 Este 29 Este 0 1005.8 0 73
2018-05-15 13:00:00 20.2 15 Sudeste 27 Este 0 1006 0.3 73
2018-05-15 12:00:00 19.8 17 Este 27 Este 0 1006.1 0.5 75
2018-05-15 11:00:00 19.6 14 Sudeste 23 Este 0 1005.8 0.4 74
2018-05-15 10:00:00 18.7 13 Sudeste 21 Este 0 1005.7 0.9 78
2018-05-15 09:00:00 17 10 Este 16 Este 0 1005.6 0.8 85
2018-05-15 08:00:00 16.2 7 Este 12 Sudeste 0 1005.4 0.6 91
2018-05-15 07:00:00 15.6 8 Sudeste 14 Este 0 1004.8 -0.2 92
2018-05-15 06:00:00 15.7 9 Sudeste 14 Sudeste 0 1004.8 -0.7 89
2018-05-15 05:00:00 15.8 6 Sudeste 12 Sudeste 0 1004.8 -1 91
2018-05-15 04:00:00 15.4 3 Este 12 Sudeste 0 1005 -1.1 92
2018-05-15 03:00:00 15.5 4 Sur 8 Sudeste 0 1005.5 -0.8 91
2018-05-15 02:00:00 15.5 5 Sur 8 Sur 0 1005.8 -0.2 90
2018-05-15 01:00:00 15.6 4 Sudoeste 9 Sur 0 1006.1 0.5 87
2018-05-15 00:00:00 15.9 4 Sur 8 Sur 0 1006.3 1 84
2018-05-14 23:00:00 15.9 4 Oeste 11 Sur 0 1006 0.9 80
2018-05-14 22:00:00 17.3 7 Sur 14 Sur 0 1005.6 0.4 75
2018-05-14 21:00:00 17.7 9 Sur 18 Sur 0 1005.3 -0.1 70
2018-05-14 20:00:00 18.3 13 Sur 19 Sur 0 1005.1 -0.7 65
2018-05-14 19:00:00 19.4 13 Sur 18 Sur 0 1005.2 -1.1 58
2018-05-14 18:00:00 20.2 8 Sur 17 Sudeste 0 1005.4 -1.4 50
2018-05-14 17:00:00 20.7 9 Este 17 Nordeste 0 1005.8 -1.5 46
2018-05-14 16:00:00 20.5 10 Sur 17 Sur 0 1006.3 -1.5 41
2018-05-14 15:00:00 20.1 7 Sudeste 17 Sudeste 0 1006.8 -1.1 50
2018-05-14 14:00:00 19.5 9 Sudeste 20 Sudeste 0 1007.3 -0.5 64
2018-05-14 13:00:00 19 10 Sudeste 16 Sudeste 0 1007.8 0 70
2018-05-14 12:00:00 18.8 10 Sudeste 16 Sur 0 1007.9 0 75
2018-05-14 11:00:00 18.3 7 Este 11 Nordeste 0 1007.8 -0.1 74
2018-05-14 10:00:00 17.3 5 Norte 12 Nordeste 0 1007.8 0.1 78
2018-05-14 09:00:00 16.5 6 Norte 12 Norte 0 1007.9 0.3 81
2018-05-14 08:00:00 14.3 5 Noroeste 9 Noroeste 0 1007.9 0.1 88
2018-05-14 07:00:00 12.9 6 Noroeste 8 Norte 0 1007.7 -0.3 82
2018-05-14 06:00:00 13.6 6 Noroeste 11 Noroeste 0 1007.6 -1 85
2018-05-14 05:00:00 14.4 3 Oeste 10 Sudoeste 0 1007.8 -1.4 47
2018-05-14 04:00:00 15.7 6 Sudoeste 10 Sudoeste 0 1008 -1.6 41
2018-05-14 03:00:00 16.4 6 Sudoeste 10 Sur 0 1008.6 -1.2 38
2018-05-14 02:00:00 16.6 7 Sudoeste 10 Sudoeste 0 1009.2 -0.2 39
2018-05-14 01:00:00 16.1 6 Sudoeste 9 Sudoeste 0 1009.6 1.1 49
2018-05-11 20:00:00 19.3 6 Sur 13 Sur 0 1007.3 -0.9 71
2018-05-11 19:00:00 20.6 9 Sur 16 Sudeste 0 1007.7 -1 66
2018-05-11 18:00:00 20.8 12 Sur 17 Sur 0 1007.9 -1 65
2018-05-11 17:00:00 20.3 8 Nordeste 17 Norte 0 1008.2 -0.9 69
2018-05-11 16:00:00 20.3 8 Nordeste 16 Este 0 1008.7 -0.6 68
2018-05-11 15:00:00 20.7 7 Este 18 Sudeste 0 1008.9 -0.7 67
2018-05-11 14:00:00 20.5 7 Este 15 Este 0 1009.1 -0.1 68
2018-05-11 13:00:00 20.1 5 Este 15 Nordeste 0 1009.3 0.6 69
2018-05-11 12:00:00 18.8 9 Nordeste 17 Nordeste 0 1009.6 1.3 72
2018-05-11 11:00:00 19.1 8 Este 14 Este 0.4 1009.2 1.4 72
2018-05-11 10:00:00 18.7 7 Sudeste 11 Sudeste 0 1008.7 1.6 74
2018-05-11 09:00:00 16.9 4 Nordeste 6 Sudoeste 0 1008.3 1.4 81
2018-05-11 08:00:00 14.5 4 Sudoeste 7 Oeste 0 1007.8 1 89
2018-05-11 07:00:00 13.9 3 Oeste 6 Oeste 0 1007.1 0.3 89
2018-05-11 06:00:00 13.9 2 Noroeste 7 Oeste 0 1006.9 0.1 89
2018-05-11 05:00:00 14.4 4 Oeste 11 Noroeste 0 1006.8 -0.2 87
2018-05-11 04:00:00 14.4 6 Oeste 10 Oeste 0 1006.8 -0.4 88
2018-05-11 03:00:00 14.4 5 Noroeste 7 Norte 0 1006.8 -0.2 88
2018-05-11 02:00:00 14.7 3 Norte 7 Sudoeste 0 1007 0.4 87
2018-05-11 01:00:00 15.1 2 Norte 9 Sudoeste 0 1007.2 1.3 85
2018-05-11 00:00:00 15.3 3 Norte 8 Sudoeste 0 1007 1.9 83
2018-05-10 23:00:00 15.5 4 Sudoeste 10 Noroeste 0 1006.6 2 83
2018-05-10 22:00:00 16.2 4 Oeste 11 Noroeste 0 1005.9 1.5 80
2018-05-10 21:00:00 17.4 4 Oeste 20 Noroeste 0 1005.1 0.3 74
2018-05-10 20:00:00 19 8 Oeste 31 Noroeste 0 1004.6 -0.7 69
2018-05-10 19:00:00 20.6 7 Oeste 30 Oeste 0 1004.4 -1.3 64
2018-05-10 18:00:00 20.6 12 Oeste 32 Sudoeste 0 1004.8 -1 63
2018-05-10 17:00:00 20.9 10 Oeste 26 Oeste 0 1005.3 -0.5 64
2018-05-10 16:00:00 20.6 8 Oeste 28 Oeste 0 1005.7 0.1 64
2018-05-10 15:00:00 21.7 12 Oeste 36 Oeste 0 1005.8 0.4 60
2018-05-10 14:00:00 20.5 13 Oeste 32 Sudoeste 0 1005.8 0.8 60
2018-05-10 13:00:00 20.1 12 Oeste 46 Sudoeste 0 1005.6 0.7 62
2018-05-10 12:00:00 18 16 Oeste 43 Sudoeste 0 1005.4 0.6 69
2018-05-10 11:00:00 17.5 12 Oeste 35 Oeste 0 1005 0.6 72
2018-05-10 10:00:00 17.3 9 Sudoeste 28 Sudoeste 0 1004.9 1.3 74
2018-05-10 09:00:00 16.3 10 Sudoeste 33 Sudoeste 0 1004.8 1.3 76
2018-05-10 08:00:00 16.3 9 Sur 31 Noroeste 0 1004.4 1 76
2018-05-10 07:00:00 16.4 10 Oeste 33 Sudoeste 0 1003.6 -0.3 71
2018-05-10 06:00:00 16.2 14 Sudoeste 36 Sur 0 1003.5 0.2 76
2018-05-10 05:00:00 16.4 18 Sudoeste 45 Oeste 0 1003.4 0.2 78
2018-05-10 04:00:00 16.4 10 Sudoeste 32 Sudoeste 0 1003.9 1 76
2018-05-10 03:00:00 16.7 11 Sudeste 44 Sudoeste 0 1003.3 -0.4 73
2018-05-10 02:00:00 16.8 16 Oeste 75 Sudoeste 0 1003.2 -0.2 72
2018-05-10 01:00:00 16.7 19 Oeste 57 Sudoeste 0 1002.9 0 76
2018-05-10 00:00:00 16.9 11 Oeste 43 Oeste 0 1003.7 0.3 75
2018-05-09 23:00:00 17.2 12 Oeste 42 Noroeste 0 1003.4 0.6 77
2018-05-09 22:00:00 17.4 16 Oeste 51 Sudoeste 0 1002.9 0.3 77
2018-05-09 21:00:00 17.7 10 Sudoeste 42 Sudoeste 0 1003.4 0.9 77
2018-05-09 20:00:00 18.2 10 Nordeste 49 Oeste 0 1002.8 0.4 78
2018-05-09 19:00:00 19.1 15 Oeste 41 Sudoeste 0 1002.6 -0.1 76
2018-05-09 18:00:00 19.6 18 Oeste 55 Oeste 0 1002.5 -0.7 75
2018-05-09 17:00:00 20.5 19 Oeste 45 Oeste 0 1002.4 -1 72
2018-05-09 16:00:00 22.3 16 Oeste 46 Sudoeste 0 1002.7 -0.9 65
2018-05-09 15:00:00 23.6 9 Oeste 31 Noroeste 0 1003.2 -0.5 62
2018-05-09 14:00:00 24.1 7 Noroeste 29 Oeste 0 1003.4 -0.1 61
2018-05-09 13:00:00 22.8 11 Oeste 33 Oeste 0 1003.6 0.7 61
2018-05-09 12:00:00 21.9 13 Oeste 32 Oeste 0 1003.7 1.5 66
2018-05-09 11:00:00 21.8 9 Oeste 30 Sur 0 1003.5 1.5 64
2018-05-09 10:00:00 21 9 Oeste 25 Oeste 0 1002.9 1.8 65
2018-05-09 09:00:00 19.5 8 Sur 33 Oeste 0 1002.2 1.2 68
2018-05-09 08:00:00 17.9 8 Oeste 26 Sur 0 1002 1 75
2018-05-09 07:00:00 17.5 10 Sudoeste 32 Sudoeste 0 1001.1 -0.2 76
2018-05-09 06:00:00 17.3 8 Oeste 28 Sudoeste 0 1001 -0.2 78
2018-05-09 05:00:00 17.3 7 Oeste 32 Sudoeste 0 1001 -0.8 80
2018-05-09 04:00:00 17.2 16 Noroeste 37 Oeste 0 1001.3 -0.9 80
2018-05-09 03:00:00 17.8 20 Noroeste 42 Noroeste 0 1001.2 -1.2 75
2018-05-09 02:00:00 19 13 Oeste 31 Noroeste 0 1001.8 -0.3 65
2018-05-09 01:00:00 18.3 4 Oeste 22 Sudoeste 0 1002.2 1 74
2018-05-09 00:00:00 18.7 8 Noroeste 28 Noroeste 0 1002.4 1.7 72
2018-05-08 23:00:00 19.2 10 Oeste 42 Oeste 0 1002.1 1.6 68
2018-05-08 22:00:00 21.1 23 Noroeste 48 Oeste 0 1001.2 0.4 53
2018-05-08 21:00:00 21.1 22 Noroeste 49 Noroeste 0 1000.7 -0.1 53
2018-05-08 20:00:00 22 16 Noroeste 40 Noroeste 0 1000.5 -0.6 55
2018-05-08 19:00:00 23.2 12 Noroeste 42 Oeste 0 1000.8 -0.6 53
2018-05-08 18:00:00 21.9 22 Oeste 47 Oeste 0 1000.8 -1.3 60
2018-05-08 17:00:00 23.7 23 Oeste 46 Oeste 0 1001.1 -1.5 51
2018-05-08 16:00:00 24.2 17 Oeste 36 Oeste 0 1001.4 -1.8 51
2018-05-08 15:00:00 24.1 13 Oeste 31 Noroeste 0 1002.1 -1.4 51
2018-05-08 14:00:00 23.2 16 Oeste 39 Oeste 0 1002.6 -1 56
2018-05-08 13:00:00 22.9 14 Noroeste 30 Noroeste 0 1003.2 -0.5 59
2018-05-08 12:00:00 21.8 9 Oeste 25 Oeste 0 1003.5 0.2 69
2018-05-08 11:00:00 20.4 7 Sur 15 Sur 0 1003.6 0.5 73
2018-05-08 10:00:00 19.6 6 Sur 10 Sur 0 1003.7 0.5 80
2018-05-08 09:00:00 18.4 3 Este 9 Sur 0 1003.3 -0.2 84
2018-05-08 08:00:00 15.4 2 Sudoeste 7 Sudoeste 0 1003.1 -0.8 94
2018-05-08 07:00:00 15.1 2 Oeste 6 Sudoeste 0 1003.2 -0.9 94
2018-05-08 06:00:00 15.4 4 Sudoeste 8 Sur 0 1003.5 -1 94
2018-05-08 05:00:00 14.9 4 Norte 7 Sudoeste 0 1003.9 -0.8 95
2018-05-08 04:00:00 15.4 5 Sudoeste 13 Sudoeste 0 1004.1 -1 97
2018-05-08 03:00:00 15.4 5 Sudoeste 9 Sudoeste 0 1004.5 -0.7 96
2018-05-08 02:00:00 15.3 3 Sudeste 7 Oeste 0 1004.7 0.1 93
2018-05-08 01:00:00 16.1 5 Sudoeste 9 Sudoeste 0 1005.1 0.7 93
2018-05-08 00:00:00 16.2 5 Sudoeste 10 Sudoeste 0 1005.2 1.1 91
2018-05-07 23:00:00 16.1 6 Sur 10 Sudoeste 0 1004.6 1.2 91
2018-05-07 22:00:00 16.4 3 Noroeste 12 Sudeste 0 1004.4 0.7 89
2018-05-07 21:00:00 17.1 8 Sudeste 18 Sur 0 1004.1 0.1 86
2018-05-07 20:00:00 17.6 12 Sur 21 Sur 0 1003.4 -1 85
2018-05-07 19:00:00 18.2 13 Sur 21 Sur 0 1003.7 -1.2 79
2018-05-07 18:00:00 19.1 8 Sudeste 18 Sudeste 0 1004 -1.1 77
2018-05-07 17:00:00 19.3 11 Sudeste 20 Este 0 1004.4 -1.1 68
2018-05-07 16:00:00 19.3 15 Este 24 Este 0 1004.9 -0.8 73
2018-05-07 15:00:00 20.3 13 Este 26 Este 0 1005.1 -0.8 74
2018-05-07 14:00:00 19.8 13 Este 29 Este 0 1005.5 0 78
2018-05-07 13:00:00 18.3 14 Nordeste 30 Nordeste 0 1005.7 0.7 85
2018-05-07 12:00:00 17.7 16 Este 28 Este 0 1005.9 1 87
2018-05-07 11:00:00 17.2 14 Nordeste 23 Nordeste 0 1005.5 1.1 89
2018-05-07 10:00:00 17.5 12 Este 21 Este 0 1005 1.1 89
2018-05-07 09:00:00 17 11 Este 20 Este 0 1004.9 1.1 90
2018-05-07 08:00:00 15.8 7 Este 14 Este 0 1004.4 0.6 96
2018-05-07 07:00:00 15.9 6 Sudeste 14 Sudeste 0 1003.9 -0.1 94
2018-05-07 06:00:00 15.9 7 Sudeste 15 Este 0 1003.8 -0.3 95
2018-05-07 05:00:00 15.9 8 Este 15 Este 0 1003.8 -0.6 94
2018-05-07 04:00:00 15.9 9 Este 18 Sudeste 0 1004 -0.8 94
2018-05-07 03:00:00 16 8 Este 20 Nordeste 0 1004.1 -0.8 95
2018-05-07 02:00:00 16.4 12 Este 20 Este 0 1004.4 -0.4 95
2018-05-07 01:00:00 16.4 10 Este 20 Este 0 1004.8 0.5 93
2018-05-07 00:00:00 16.3 12 Este 24 Este 0 1004.9 1.1 92
2018-05-06 23:00:00 16.6 16 Este 29 Este 0 1004.8 1.3 91
2018-05-06 22:00:00 16.7 15 Este 26 Este 0 1004.3 0.8 92
2018-05-06 21:00:00 16.8 15 Sudeste 29 Este 0 1003.8 0.1 89
2018-05-06 20:00:00 17.2 16 Este 26 Este 0 1003.5 -0.5 90
2018-05-06 19:00:00 18.1 15 Sudeste 31 Este 0 1003.5 -1.1 85
2018-05-06 18:00:00 18.7 17 Este 27 Este 0 1003.7 -1.3 79
2018-05-06 17:00:00 19.3 16 Sudeste 29 Este 0 1004 -1.4 76
2018-05-06 16:00:00 19.1 19 Este 33 Este 0 1004.6 -1.2 81
2018-05-06 15:00:00 19.5 20 Este 36 Este 0 1005 -1 79
2018-05-06 14:00:00 19.9 20 Este 36 Sudeste 0 1005.4 -0.3 76
2018-05-06 13:00:00 18.5 21 Este 36 Este 0 1005.8 0.4 81
2018-05-06 12:00:00 18.3 21 Este 33 Sudeste 0 1006 0.9 82
2018-05-06 11:00:00 17.3 18 Este 30 Este 0 1005.7 0.8 86
2018-05-06 10:00:00 16.9 18 Este 29 Este 0 1005.4 1 88
2018-05-06 09:00:00 16.3 15 Este 28 Este 0 1005.1 0.8 91
2018-05-06 08:00:00 15.8 15 Este 27 Este 0 1004.9 0.2 94
2018-05-06 07:00:00 15.6 12 Este 23 Este 0 1004.4 -0.5 95
2018-05-06 06:00:00 15.7 14 Este 23 Este 0 1004.3 -0.5 95
2018-05-06 05:00:00 15.9 13 Sudeste 21 Sudeste 0 1004.7 -0.8 93
2018-05-06 04:00:00 16.1 12 Sudeste 21 Sudeste 0 1004.9 -0.5 92
2018-05-06 03:00:00 16.1 12 Sudeste 21 Sudeste 0 1004.8 -0.7 93
2018-05-06 02:00:00 16.2 12 Sudeste 23 Sur 0 1005.5 0.1 94
2018-05-06 01:00:00 16.2 13 Sur 21 Sudeste 0 1005.4 0.5 93
2018-05-06 00:00:00 16.3 14 Sudeste 24 Sudeste 0 1005.5 0.9 91
2018-05-05 23:00:00 16.2 12 Sudeste 22 Este 0 1005.4 0.9 91
2018-05-05 22:00:00 16.2 13 Sudeste 20 Este 0 1004.9 0.3 89
2018-05-05 21:00:00 16.6 11 Sudeste 22 Sudeste 0 1004.6 -0.1 89
2018-05-05 20:00:00 16.7 11 Sudeste 19 Sur 0 1004.5 -0.4 89
2018-05-05 19:00:00 17.6 13 Este 23 Sur 0 1004.6 -0.7 84
2018-05-05 18:00:00 18 15 Este 23 Este 0 1004.7 -0.8 84
2018-05-05 17:00:00 18.6 15 Sudeste 25 Este 0 1004.9 -1 78
2018-05-05 16:00:00 18.4 13 Este 27 Este 0 1005.3 -0.7 80
2018-05-05 15:00:00 17.6 18 Nordeste 27 Nordeste 0 1005.5 -0.6 86
2018-05-05 14:00:00 16.9 16 Nordeste 26 Nordeste 0 1005.9 0 89
2018-05-05 13:00:00 17.8 14 Nordeste 23 Este 0 1006 0.4 85
2018-05-05 12:00:00 17.3 14 Nordeste 22 Nordeste 0 1006.1 0.9 81
2018-05-05 11:00:00 17.1 10 Este 18 Este 0 1005.9 1 80
2018-05-05 10:00:00 16.5 10 Este 18 Este 0 1005.6 1.5 87
2018-05-05 09:00:00 15.9 10 Este 19 Este 0 1005.2 1.3 89
2018-05-05 08:00:00 15.6 8 Este 14 Este 0 1004.9 1 92
2018-05-05 07:00:00 15.2 6 Nordeste 12 Nordeste 0 1004.1 0.3 95
2018-05-05 06:00:00 14.8 2 Oeste 11 Noroeste 0 1003.9 -0.3 96
2018-05-05 05:00:00 14.5 4 Norte 13 Norte 0 1003.9 -0.5 95
2018-05-05 04:00:00 14.4 3 Norte 10 Norte 0 1003.8 -0.5 98
2018-05-05 03:00:00 14 4 Noroeste 6 Noroeste 0 1004.2 -0.1 94
2018-05-05 02:00:00 14.2 5 Noroeste 8 Oeste 0 1004.4 0.3 89
2018-05-05 01:00:00 15 6 Oeste 9 Oeste 0 1004.3 1 81
2018-05-05 00:00:00 15.5 5 Sudoeste 14 Sudoeste 0 1004.3 1.4 82
2018-05-04 23:00:00 16 9 Sur 14 Sur 0 1004.1 1 85
2018-05-04 22:00:00 16.2 4 Sur 6 Sudoeste 0 1003.3 0.7 82
2018-05-04 21:00:00 16.7 4 Sudoeste 15 Noroeste 0 1002.9 0.7 81
2018-05-04 20:00:00 17.9 8 Sur 22 Sudeste 0 1003.1 1.1 71
2018-05-04 19:00:00 18.1 11 Noroeste 30 Noroeste 0 1002.6 1 74
2018-05-04 18:00:00 19.4 16 Noroeste 44 Noroeste 0 1002.2 0.6 69
2018-05-04 17:00:00 19.5 21 Noroeste 36 Noroeste 0 1002 0.7 70
2018-05-04 16:00:00 22.3 17 Noroeste 33 Noroeste 0 1001.6 0.3 60
2018-05-04 15:00:00 21.9 13 Oeste 35 Oeste 0 1001.6 0.2 57
2018-05-04 14:00:00 22.3 11 Oeste 30 Oeste 0 1001.3 0.4 56
2018-05-04 13:00:00 21.3 10 Oeste 30 Oeste 0 1001.3 1 59
2018-05-04 12:00:00 20 9 Oeste 27 Oeste 0 1001.4 1.1 63
2018-05-04 11:00:00 19.2 12 Oeste 30 Oeste 0 1000.9 0.8 64
2018-05-04 10:00:00 19.3 13 Noroeste 30 Noroeste 0 1000.3 0.6 61
2018-05-04 09:00:00 18.5 6 Norte 22 Oeste 0 1000.3 0.5 57
2018-05-04 08:00:00 17.6 10 Oeste 29 Noroeste 0 1000.1 0.1 56
2018-05-04 07:00:00 17.7 12 Noroeste 32 Noroeste 0 999.7 -0.6 53
2018-05-04 06:00:00 17.7 12 Oeste 37 Oeste 0 999.8 -1.1 45
2018-05-04 05:00:00 17.5 12 Oeste 36 Oeste 0 1000 -1.5 46
2018-05-04 04:00:00 17.1 14 Oeste 34 Oeste 0 1000.3 -1.8 54
2018-05-04 03:00:00 16.9 13 Oeste 34 Oeste 0 1000.9 -1.1 58
2018-05-04 02:00:00 16.8 13 Oeste 33 Noroeste 0 1001.5 -0.5 60
2018-05-04 01:00:00 16.6 14 Oeste 32 Oeste 0 1002.1 0.6 58
2018-05-04 00:00:00 16.7 13 Oeste 31 Oeste 0 1002 0.6 61
2018-05-03 23:00:00 16.8 12 Noroeste 41 Noroeste 0 1002 0.7 61
2018-05-03 22:00:00 16.7 14 Oeste 37 Sudoeste 0 1001.5 -0.1 59
2018-05-03 21:00:00 17.2 14 Oeste 36 Oeste 0 1001.4 -0.4 51
2018-05-03 20:00:00 18 15 Oeste 40 Noroeste 0 1001.3 -1 49
2018-05-03 19:00:00 19.3 15 Oeste 37 Oeste 0 1001.6 -1.2 49
2018-05-03 18:00:00 20.3 15 Oeste 35 Sudoeste 0 1001.8 -1.6 45
2018-05-03 17:00:00 21.1 13 Oeste 35 Sudoeste 0 1002.3 -1.4 46
2018-05-03 16:00:00 21.4 14 Oeste 27 Oeste 0 1002.8 -1.4 47
2018-05-03 15:00:00 21.4 11 Oeste 30 Oeste 0 1003.4 -1.1 48
2018-05-03 14:00:00 21.6 10 Oeste 22 Oeste 0 1003.7 -0.9 46
2018-05-03 13:00:00 21.1 5 Nordeste 21 Norte 0 1004.2 -0.3 44
2018-05-03 12:00:00 20.2 10 Sudeste 19 Sur 0 1004.5 0.1 46
2018-05-03 11:00:00 20 5 Este 12 Sur 0 1004.6 0.5 45
2018-05-03 10:00:00 18.9 6 Sudeste 24 Oeste 0 1004.5 0.5 42
2018-05-03 09:00:00 17.4 10 Noroeste 21 Norte 0 1004.4 0.1 41
2018-05-03 08:00:00 14.9 5 Noroeste 11 Sur 0 1004.1 -0.5 42
2018-05-03 07:00:00 13.9 6 Sur 22 Oeste 0 1004 -1.1 52
2018-05-03 06:00:00 14.5 9 Noroeste 21 Oeste 0 1004.3 -1.1 43
2018-05-03 05:00:00 13.6 4 Sudoeste 11 Sur 0 1004.6 -1.5 56
2018-05-03 04:00:00 13.8 6 Sudoeste 19 Oeste 0 1005.1 -1.4 54
2018-05-03 03:00:00 13.8 6 Oeste 19 Oeste 0 1005.4 -1.2 59
2018-05-03 02:00:00 14.6 6 Oeste 21 Oeste 0 1006.1 -0.5 51
2018-05-03 01:00:00 14.3 8 Oeste 22 Oeste 0 1006.5 0.4 54
2018-05-03 00:00:00 14.5 11 Oeste 23 Oeste 0 1006.6 0.7 53
2018-05-02 23:00:00 14.8 14 Noroeste 31 Oeste 0 1006.6 0.7 56
2018-05-02 22:00:00 15 13 Noroeste 32 Oeste 0 1006.1 0.1 53
2018-05-02 21:00:00 15.4 14 Noroeste 29 Noroeste 0 1005.9 -0.1 52
2018-05-02 20:00:00 16.4 12 Oeste 31 Oeste 0 1005.9 -0.4 52
2018-05-02 19:00:00 18.2 14 Oeste 36 Oeste 0 1006 -0.9 45
2018-05-02 18:00:00 19 15 Oeste 30 Oeste 0 1006 -1.1 48
2018-05-02 17:00:00 19.8 13 Noroeste 24 Norte 0 1006.3 -0.9 46
2018-05-02 16:00:00 19.8 8 Sudoeste 26 Oeste 0 1006.9 -0.5 49
2018-05-02 15:00:00 19.4 10 Noroeste 29 Oeste 0 1007.1 -0.4 50
2018-05-02 14:00:00 18.9 10 Oeste 27 Noroeste 0 1007.2 -0.1 51
2018-05-02 13:00:00 18.8 12 Noroeste 33 Noroeste 0 1007.4 0.3 50
2018-05-02 12:00:00 18.7 11 Noroeste 30 Noroeste 0 1007.5 0.5 51
2018-05-02 11:00:00 18.3 7 Oeste 24 Oeste 0 1007.3 0.7 56
2018-05-02 10:00:00 16.2 11 Oeste 26 Noroeste 0 1007.1 -- 64
2018-05-02 09:00:00 14.9 9 Oeste 20 Oeste 0 1007 -- 70
2018-05-02 08:00:00 13.5 8 Oeste 26 Oeste 0 1006.6 -- 74
2018-05-02 07:00:00 13 8 Oeste 23 Oeste 0 -- -- 78
2018-05-02 06:00:00 13.1 8 Oeste 23 Oeste 0 -- -- 78
2018-05-02 05:00:00 13.2 8 Oeste 27 Oeste 0 -- -- 77
2018-05-02 04:00:00 13.6 10 Oeste 37 Oeste 0 -- -- 75
2018-05-02 03:00:00 13.8 14 Oeste 34 Noroeste 0 -- -- 72
2018-05-02 02:00:00 13.7 13 Oeste 42 Oeste 0 -- -- 73
2018-05-02 01:00:00 13.8 14 Oeste 36 Oeste 0 -- -- 72
2018-05-02 00:00:00 13.6 12 Oeste 29 Oeste 0 -- -- 71
2018-05-01 23:00:00 13.3 12 Oeste 36 Noroeste 0 -- -- 64
2018-05-01 22:00:00 12.8 14 Oeste 30 Noroeste 0 -- -- 68
2018-05-01 21:00:00 12.5 10 Oeste 46 Noroeste 1.2 -- -- 74
2018-05-01 20:00:00 14.2 12 Oeste 37 Noroeste 0 -- -- 70
2018-05-01 19:00:00 14.9 13 Oeste 39 Oeste 0 -- -- 64
2018-05-01 18:00:00 15.8 20 Oeste 48 Oeste 0 -- -- 58
2018-05-01 17:00:00 16.8 16 Noroeste 46 Oeste 0 -- -- 61
2018-05-01 16:00:00 16.8 19 Oeste 44 Noroeste 0 1005 -1.3 57
2018-05-01 15:00:00 17.6 15 Oeste 39 Oeste 0 1005.5 -1 51
2018-05-01 14:00:00 17.8 14 Oeste 35 Oeste 0 1005.7 -0.4 50
2018-05-01 13:00:00 17.5 10 Oeste 30 Sudoeste 0 1006.3 0.5 55
2018-05-01 12:00:00 17.7 15 Noroeste 34 Noroeste 0 1006.5 1 58
2018-05-01 11:00:00 16.4 9 Oeste 28 Oeste 0 1006.1 0.8 62
2018-05-01 10:00:00 16.1 10 Oeste 26 Noroeste 0 1005.8 0.8 60
2018-05-01 09:00:00 15.4 12 Oeste 27 Noroeste 0 1005.5 0.5 63
2018-05-01 08:00:00 13.6 11 Oeste 26 Noroeste 0 1005.3 0.3 69
2018-05-01 07:00:00 13 6 Oeste 20 Oeste 0 1005 -0.2 76
2018-05-01 06:00:00 13.1 5 Oeste 25 Noroeste 0 1005 -0.8 74
2018-05-01 05:00:00 13 10 Noroeste 27 Noroeste 0 1005 -1.5 76
2018-05-01 04:00:00 13 12 Noroeste 32 Oeste 0 1005.2 -1.6 78
2018-05-01 03:00:00 12.9 12 Noroeste 30 Noroeste 0 1005.8 -0.7 78
2018-05-01 02:00:00 13 3 Oeste 23 Noroeste 0 1006.5 -0.1 74
2018-05-01 01:00:00 13.4 5 Oeste 39 Oeste 0 1006.8 0.5 74
2018-05-01 00:00:00 13.5 13 Noroeste 35 Noroeste 0 1006.5 1 71
2018-04-30 23:00:00 13.8 6 Oeste 20 Oeste 0 1006.6 1.2 67
2018-04-30 22:00:00 14.2 4 Oeste 14 Sudoeste 0 1006.3 1 66
2018-04-30 21:00:00 14.8 8 Este 23 Noroeste 0 1005.5 0.5 61
2018-04-30 20:00:00 15.3 9 Norte 22 Nordeste 0 1005.4 0.3 56
2018-04-30 19:00:00 16.5 10 Noroeste 33 Noroeste 0 1005.3 -0.3 54
2018-04-30 18:00:00 17.7 13 Noroeste 33 Noroeste 0 1005 -0.8 53
2018-04-30 17:00:00 17 17 Noroeste 36 Noroeste 0 1005.1 -1.1 47
2018-04-30 16:00:00 16.7 18 Noroeste 37 Noroeste 0 1005.6 -1 48
2018-04-30 15:00:00 18.3 13 Noroeste 31 Noroeste 0 1005.8 -1 46
2018-04-30 14:00:00 18.1 11 Oeste 23 Oeste 0 1006.2 -0.4 50
2018-04-30 13:00:00 17.9 12 Oeste 27 Sudoeste 0 1006.6 -0.2 50
2018-04-30 12:00:00 16.6 6 Oeste 19 Oeste 0 1006.8 0.1 59
2018-04-30 11:00:00 16.3 7 Oeste 23 Noroeste 0 1006.6 0.1 60
2018-04-30 10:00:00 15.6 8 Noroeste 19 Oeste 0 1006.8 0.5 62
2018-04-30 09:00:00 14.1 8 Norte 14 Norte 0 1006.7 0.6 67
2018-04-30 08:00:00 11.7 5 Noroeste 11 Noroeste 0 1006.5 0 80
2018-04-30 07:00:00 12.2 9 Noroeste 22 Noroeste 0 1006.3 -0.6 78
2018-04-30 06:00:00 12.3 8 Oeste 20 Oeste 0 1006.1 -1.5 75
2018-04-30 05:00:00 12.5 6 Oeste 17 Noroeste 0 1006.5 -1.6 71
2018-04-30 04:00:00 12.8 6 Oeste 19 Oeste 0 1006.9 -1.6 75
2018-04-30 03:00:00 13.4 6 Oeste 17 Sudoeste 0 1007.6 -1.1 71
2018-04-30 02:00:00 13.2 7 Oeste 22 Noroeste 0 1008.1 -0.5 70
2018-04-30 01:00:00 13.2 8 Oeste 19 Oeste 0 1008.5 0.5 71
2018-04-30 00:00:00 13.8 8 Oeste 21 Sudoeste 0 1008.7 1.3 70
2018-04-29 23:00:00 13.6 6 Oeste 21 Noroeste 0 1008.6 1.4 68
2018-04-29 22:00:00 14.1 6 Oeste 19 Sudoeste 0 1008 0.6 67
2018-04-29 21:00:00 14.4 8 Oeste 24 Oeste 0 1007.4 0.1 66
2018-04-29 20:00:00 15.2 8 Oeste 26 Sudoeste 0 1007.2 -0.3 63
2018-04-29 19:00:00 16.5 9 Oeste 28 Oeste 0 1007.4 -0.5 62
2018-04-29 18:00:00 17.1 9 Oeste 36 Sudoeste 0 1007.3 -0.7 58
2018-04-29 17:00:00 17.2 15 Oeste 59 Sur 0 1007.5 -0.7 53
2018-04-29 16:00:00 17.7 13 Oeste 37 Oeste 0 1007.9 -0.6 56
2018-04-29 15:00:00 17.8 14 Oeste 40 Oeste 0 1008 -0.3 54
2018-04-29 14:00:00 16.6 12 Sudoeste 40 Oeste 0.2 1008.2 0.2 60
2018-04-29 13:00:00 16.3 13 Oeste 38 Sudoeste 0 1008.5 1.2 61
2018-04-29 12:00:00 15.4 9 Oeste 31 Oeste 0 1008.3 1.6 66
2018-04-29 11:00:00 15 8 Oeste 49 Oeste 0.2 1008 2.6 73
2018-04-29 10:00:00 13.9 7 Oeste 28 Sur 0 1007.3 2.4 73
2018-04-29 09:00:00 12.6 11 Oeste 40 Noroeste 1.4 1006.7 2.5 80
2018-04-29 08:00:00 12 11 Oeste 32 Oeste 1.6 1005.4 1.5 80
2018-04-29 07:00:00 12.8 12 Oeste 49 Sudoeste 0 1004.9 1.6 74
2018-04-29 06:00:00 12.7 17 Oeste 42 Noroeste 0.4 1004.2 0.8 76
2018-04-29 05:00:00 12.2 15 Oeste 46 Noroeste 2 1003.9 0.1 84
2018-04-29 04:00:00 13.5 15 Oeste 45 Oeste 0 1003.3 -0.8 72
2018-04-29 03:00:00 13.4 15 Oeste 39 Sudoeste 0 1003.4 -0.4 76
2018-04-29 02:00:00 13.1 19 Oeste 56 Sudoeste 0.2 1003.8 0.3 81
2018-04-29 01:00:00 13.2 14 Oeste 38 Noroeste 0.8 1004.1 0.8 86
2018-04-29 00:00:00 14.6 10 Sudoeste 26 Oeste 0 1003.8 0.7 70
2018-04-28 23:00:00 14.4 5 Sudoeste 24 Sudoeste 0 1003.5 0.7 69
2018-04-28 22:00:00 14.6 8 Sudoeste 23 Oeste 0 1003.3 0.6 66
2018-04-28 21:00:00 14.9 12 Oeste 39 Noroeste 0 1003.1 0.1 64
2018-04-28 20:00:00 15.2 6 Oeste 34 Norte 0 1002.8 -0.4 63
2018-04-28 19:00:00 16.4 14 Noroeste 38 Noroeste 0 1002.7 -0.8 57
2018-04-28 18:00:00 16.5 13 Noroeste 31 Oeste 0 1003 -0.8 61
2018-04-28 17:00:00 17 17 Noroeste 30 Noroeste 0 1003.2 -1 60
2018-04-28 16:00:00 17.9 17 Oeste 41 Noroeste 0 1003.5 -1 57
2018-04-28 15:00:00 18 18 Oeste 39 Sudoeste 0 1003.8 -0.8 62
2018-04-28 14:00:00 18 16 Oeste 39 Oeste 0 1004.2 -0.1 62
2018-04-28 13:00:00 17.9 15 Oeste 42 Oeste 0 1004.5 0.5 69
2018-04-28 12:00:00 17.6 12 Oeste 36 Oeste 0 1004.6 0.6 73
2018-04-28 11:00:00 17 12 Oeste 36 Sudoeste 0 1004.3 0.8 76
2018-04-28 10:00:00 16.4 10 Oeste 27 Sudoeste 0 1004 0.9 77
2018-04-28 09:00:00 16.1 10 Noroeste 26 Noroeste 0 1004 1 78
2018-04-28 08:00:00 16.3 10 Oeste 26 Noroeste 0 1003.5 0.1 82
2018-04-28 07:00:00 16.1 8 Sudoeste 26 Sudoeste 0 1003.1 -0.4 82
2018-04-28 06:00:00 15.8 6 Sudoeste 26 Oeste 0 1003 -0.4 83
2018-04-28 05:00:00 15.8 11 Oeste 27 Sudoeste 0 1003.4 -0.4 81
2018-04-28 04:00:00 16.6 14 Oeste 27 Oeste 0 1003.5 -0.5 72
2018-04-28 03:00:00 16.6 7 Sudoeste 19 Sudoeste 0 1003.4 -0.9 66
2018-04-28 02:00:00 16.5 4 Sudoeste 12 Noroeste 0 1003.8 -0.7 63
2018-04-28 01:00:00 16.7 3 Sur 12 Sudeste 0 1004 -0.2 60
2018-04-28 00:00:00 17.1 5 Sur 13 Sudeste 0 1004.3 0.6 65